Crown Princess — ZCDM6 — position and weather

sailwx.info

Track history (hours):
 
Tides and Currents Weather Stations Pressure Air Temp Water Temp Dewpoint Dewpoint Depression Visibility Wind Speed Wind Dir Waves Ship Positions

Crown Princess

Last reported at 2017-Aug-23 13:27 UTC. Time now 2017-Aug-23 13:36 UTC.
Position N 62°28' E 006°09'.

Type: Ship. MMSI: 310500000.

Date/timePositionNaut miles runAvg speedWind from/ knotsBaromVisibWave heightAir tempDewpointWater temp
2017-Aug-23 13:27N 62°28' E 006°09'0 0.0
2017-Aug-23 12:51N 62°28' E 006°09'0 0.0
2017-Aug-23 12:15N 62°28' E 006°09'0 0.0
2017-Aug-23 11:57N 62°28' E 006°09'0 0.0
2017-Aug-23 11:27N 62°28' E 006°09'0 0.0
2017-Aug-23 10:56N 62°28' E 006°09'0 0.0
2017-Aug-23 10:26N 62°28' E 006°09'0 0.0
2017-Aug-23 09:59N 62°28' E 006°09'0 0.0
2017-Aug-23 09:23N 62°28' E 006°09'0 0.0
2017-Aug-23 08:58N 62°28' E 006°09'0 0.0
2017-Aug-23 08:28N 62°28' E 006°09'0 0.0
2017-Aug-23 07:55N 62°28' E 006°09'0 0.0
2017-Aug-23 07:25N 62°28' E 006°09'0 0.0
2017-Aug-23 06:55N 62°28' E 006°09'0 0.0
2017-Aug-23 06:30N 62°28' E 006°09'0 0.0
2017-Aug-23 05:48N 62°28' E 006°09'0 0.2
2017-Aug-23 05:30N 62°28' E 006°10'1 1.4
2017-Aug-23 05:00N 62°28' E 006°10'611.6
2017-Aug-23 04:31N 62°27' E 005°58'511.0
2017-Aug-23 04:01N 62°29' E 005°47'612.5
2017-Aug-23 03:31N 62°34' E 005°39'712.7
2017-Aug-23 03:00N 62°41' E 005°41'612.8
2017-Aug-23 02:30N 62°46' E 005°48'612.6
2017-Aug-23 02:00N 62°51' E 005°56'612.3
2017-Aug-23 01:30N 62°56' E 006°03'3 5.4
2017-Aug-23 01:00N 62°54' E 006°00'25311.5 070 / 131019.510.8 13.0 4.216.0
2017-Aug-22 03:03N 66°29' E 011°12'111.1
2017-Aug-22 02:57N 66°30' E 011°14'511.0
2017-Aug-22 02:28N 66°34' E 011°21'511.0
2017-Aug-22 02:01N 66°39' E 011°27'611.0
2017-Aug-22 01:30N 66°44' E 011°34'4710.5
2017-Aug-21 21:00N 67°24' E 012°36'510.3
2017-Aug-21 20:29N 67°29' E 012°44'510.0
2017-Aug-21 20:00N 67°33' E 012°50'510.5
2017-Aug-21 19:30N 67°37' E 012°58'511.2
2017-Aug-21 19:01N 67°42' E 013°05'510.6
2017-Aug-21 18:30N 67°47' E 013°13'511.0
2017-Aug-21 18:00N 67°51' E 013°21'611.2
2017-Aug-21 17:30N 67°56' E 013°28'510.9
2017-Aug-21 17:00N 68°01' E 013°34'510.0
2017-Aug-21 16:29N 68°06' E 013°36'1 1.8
2017-Aug-21 15:59N 68°07' E 013°36'0 0.0
2017-Aug-21 15:29N 68°07' E 013°36'0 0.0
2017-Aug-21 14:59N 68°07' E 013°36'0 0.0
2017-Aug-21 14:29N 68°07' E 013°36'0 0.0
2017-Aug-21 13:59N 68°07' E 013°36'0 0.1
2017-Aug-21 13:28N 68°07' E 013°36'0 0.0
2017-Aug-21 12:55N 68°07' E 013°36'0 0.1
2017-Aug-21 12:28N 68°07' E 013°36'0 0.0
2017-Aug-21 11:58N 68°07' E 013°36'0 0.0
2017-Aug-21 11:30N 68°07' E 013°36'0 0.0
2017-Aug-21 11:00N 68°07' E 013°36'0 0.0
2017-Aug-21 10:30N 68°07' E 013°36'0 0.0
2017-Aug-21 09:57N 68°07' E 013°36'0 0.0
2017-Aug-21 09:30N 68°07' E 013°36'0 0.0
2017-Aug-21 08:53N 68°07' E 013°36'0 0.0
2017-Aug-21 08:29N 68°07' E 013°36'0 0.0
2017-Aug-21 07:59N 68°07' E 013°36'0 0.1
2017-Aug-21 07:29N 68°07' E 013°36'0 0.0
2017-Aug-21 06:58N 68°07' E 013°36'0 0.0
2017-Aug-21 06:28N 68°07' E 013°36'0 0.5
2017-Aug-21 06:00N 68°07' E 013°36'510.2
2017-Aug-21 05:30N 68°02' E 013°34'714.0
2017-Aug-21 05:00N 67°56' E 013°21'917.7
2017-Aug-21 04:30N 67°50' E 013°05'917.4
2017-Aug-21 04:00N 67°49' E 012°42'815.8
2017-Aug-21 03:30N 67°57' E 012°35'917.9
2017-Aug-21 03:00N 68°05' E 012°43'918.8
2017-Aug-21 02:30N 68°14' E 012°54'1019.3
2017-Aug-21 02:00N 68°22' E 013°06'1019.5
2017-Aug-21 01:30N 68°31' E 013°18'1019.6
2017-Aug-21 01:00N 68°39' E 013°30'1019.6
2017-Aug-21 00:30N 68°48' E 013°43'1019.4
2017-Aug-21 00:00N 68°56' E 013°59'1019.4
2017-Aug-20 23:30N 69°04' E 014°16'919.1
2017-Aug-20 23:00N 69°10' E 014°36'1019.6
2017-Aug-20 22:30N 69°15' E 015°00'1019.4
2017-Aug-20 22:00N 69°19' E 015°25'1019.5
2017-Aug-20 21:30N 69°24' E 015°49'1019.7
2017-Aug-20 21:00N 69°28' E 016°14'4345.3
2017-Aug-20 21:00N 69°24' E 016°12'1326.2 360 / 401006.010.8 9.5 8.511.0
2017-Aug-20 20:30N 69°33' E 016°39'1019.6
2017-Aug-20 20:00N 69°37' E 017°03'1019.2
2017-Aug-20 19:30N 69°41' E 017°28'1019.3
2017-Aug-20 19:00N 69°45' E 017°55'714.5
2017-Aug-20 18:30N 69°47' E 018°15'816.3
2017-Aug-20 18:00N 69°49' E 018°37'611.1
2017-Aug-20 17:30N 69°55' E 018°40'815.5
2017-Aug-20 17:00N 69°50' E 018°58'612.4
2017-Aug-20 16:30N 69°44' E 019°03'4 7.2
2017-Aug-20 16:00N 69°41' E 018°60'0 0.0
2017-Aug-20 15:30N 69°41' E 018°60'0 0.0
2017-Aug-20 15:00N 69°41' E 018°60'0 0.0
2017-Aug-20 14:30N 69°41' E 018°60'0 0.0
2017-Aug-20 14:00N 69°41' E 018°60'0 0.0
2017-Aug-20 13:29N 69°41' E 018°60'0 0.0
2017-Aug-20 12:59N 69°41' E 018°60'0 0.0
2017-Aug-20 12:26N 69°41' E 018°60'0 0.0
2017-Aug-20 11:59N 69°41' E 018°60'0 0.0
2017-Aug-20 11:29N 69°41' E 018°60'0 0.0
2017-Aug-20 10:58N 69°41' E 018°60'0 0.0
2017-Aug-20 10:28N 69°41' E 018°60'0 0.0
2017-Aug-20 09:58N 69°41' E 018°60'0 0.0
2017-Aug-20 09:28N 69°41' E 018°60'0 0.0
2017-Aug-20 09:00N 69°41' E 018°60'0 0.0
2017-Aug-20 08:30N 69°41' E 018°60'0 0.0
2017-Aug-20 08:00N 69°41' E 018°60'5609.0
2017-Aug-20 08:00N 69°36' E 019°00'5 9.6 360 / 13997.810.8 10.5 8.5 9.6
2017-Aug-20 07:30N 69°41' E 018°60'0 0.0
2017-Aug-20 07:00N 69°41' E 018°60'0 0.6
2017-Aug-20 06:30N 69°40' E 018°59'3 6.7
2017-Aug-20 06:00N 69°44' E 019°03'713.6
2017-Aug-20 05:30N 69°48' E 019°19'815.2
2017-Aug-20 05:00N 69°50' E 019°40'815.4
2017-Aug-20 04:30N 69°55' E 019°55'1019.8
2017-Aug-20 04:00N 70°04' E 020°10'1019.9
2017-Aug-20 03:30N 70°13' E 020°21'1019.8
2017-Aug-20 03:00N 70°22' E 020°32'1019.9
2017-Aug-20 02:30N 70°32' E 020°42'2918.8
2017-Aug-20 00:58N 70°54' E 021°38'919.2
2017-Aug-20 00:30N 70°58' E 022°02'917.5
2017-Aug-20 00:00N 71°02' E 022°26'918.6
2017-Aug-19 23:30N 71°06' E 022°53'918.8
2017-Aug-19 23:00N 71°08' E 023°21'4299.2
2017-Aug-19 23:00N 71°06' E 023°12'1326.4 050 / 231006.910.8 9.0 6.911.9
2017-Aug-19 22:30N 71°11' E 023°49'918.6
2017-Aug-19 22:00N 71°12' E 024°17'918.5
2017-Aug-19 21:31N 71°12' E 024°46'918.4
2017-Aug-19 21:00N 71°13' E 025°15'1537.5
2017-Aug-19 21:00N 71°12' E 025°12'1020.1 050 / 231006.8 0.0 12.0 7.9 9.9
2017-Aug-19 20:30N 71°13' E 025°43'917.1
2017-Aug-19 20:00N 71°08' E 026°06'35785.3
2017-Aug-19 20:00N 71°06' E 026°00'714.2 010 / 51006.8 0.0 12.0 7.9 9.9
2017-Aug-19 19:30N 71°02' E 026°18'714.5
2017-Aug-19 19:00N 70°57' E 026°01'2 3.7
2017-Aug-19 18:30N 70°58' E 025°56'0 0.1
2017-Aug-19 17:59N 70°58' E 025°56'0 0.1
2017-Aug-19 17:29N 70°58' E 025°56'0 0.0
2017-Aug-19 16:59N 70°58' E 025°56'0 0.0
2017-Aug-19 16:29N 70°58' E 025°56'0 0.0
2017-Aug-19 15:59N 70°58' E 025°56'0 0.0
2017-Aug-19 15:28N 70°58' E 025°56'0 0.0
2017-Aug-19 14:59N 70°58' E 025°56'0 0.0
2017-Aug-19 13:58N 70°58' E 025°56'0 0.0
2017-Aug-19 13:30N 70°58' E 025°56'0 0.1
2017-Aug-19 13:00N 70°58' E 025°56'0 0.0
2017-Aug-19 12:30N 70°58' E 025°56'0 0.0
2017-Aug-19 12:00N 70°58' E 025°56'0 0.0
2017-Aug-19 11:30N 70°58' E 025°56'0 0.0
2017-Aug-19 10:59N 70°58' E 025°56'0 0.0
2017-Aug-19 10:29N 70°58' E 025°56'0 0.0
2017-Aug-19 09:59N 70°58' E 025°56'0 0.0
2017-Aug-19 09:29N 70°58' E 025°56'0 0.0
2017-Aug-19 08:58N 70°58' E 025°56'0 0.0
2017-Aug-19 08:28N 70°58' E 025°56'5 9.4
2017-Aug-19 08:00N 70°54' E 025°54'5184.3 210 / 51007.810.8 10.0 7.9 9.2
2017-Aug-19 07:58N 70°58' E 025°56'0 0.0
2017-Aug-19 07:28N 70°58' E 025°56'0 0.0
2017-Aug-19 06:58N 70°58' E 025°56'0 0.0
2017-Aug-19 06:30N 70°58' E 025°56'0 0.0
2017-Aug-19 06:00N 70°58' E 025°56'0 0.0
2017-Aug-19 05:30N 70°58' E 025°56'0 0.1
2017-Aug-19 05:00N 70°58' E 025°56'4 7.7
2017-Aug-19 04:29N 70°57' E 026°08'714.3
2017-Aug-19 04:00N 71°03' E 026°19'814.7
2017-Aug-19 03:30N 71°09' E 026°05'715.3
2017-Aug-19 03:00N 71°12' E 025°44'815.9
2017-Aug-19 02:30N 71°13' E 025°20'816.6
2017-Aug-19 02:00N 71°12' E 024°54'1121.0
2017-Aug-19 01:30N 71°12' E 024°21'1121.4
2017-Aug-19 01:00N 71°11' E 023°48'1121.4
2017-Aug-19 00:30N 71°08' E 023°16'1121.6
2017-Aug-19 00:00N 71°05' E 022°44'1121.7
2017-Aug-18 23:30N 71°01' E 022°13'4819.6
2017-Aug-18 21:02N 70°41' E 019°58'118.2
2017-Aug-18 21:00N 70°41' E 019°56'918.1
2017-Aug-18 20:30N 70°37' E 019°31'1020.4
2017-Aug-18 20:00N 70°33' E 019°03'7219.0
2017-Aug-18 16:12N 69°49' E 016°15'419.4
2017-Aug-18 16:00N 69°46' E 016°07'1019.3
2017-Aug-18 15:31N 69°40' E 015°47'1019.5
2017-Aug-18 15:00N 69°33' E 015°27'1019.5
2017-Aug-18 14:31N 69°26' E 015°07'1919.2
2017-Aug-18 13:30N 69°12' E 014°29'1019.8
2017-Aug-18 13:00N 69°04' E 014°12'1019.3
2017-Aug-18 12:30N 68°57' E 013°56'1019.1
2017-Aug-18 11:59N 68°49' E 013°39'919.3
2017-Aug-18 11:30N 68°42' E 013°24'1019.1
2017-Aug-18 11:00N 68°34' E 013°07'1019.4
2017-Aug-18 10:30N 68°26' E 012°52'1019.3
2017-Aug-18 10:00N 68°19' E 012°36'919.1
2017-Aug-18 09:30N 68°11' E 012°20'24219.4
2017-Aug-17 21:00N 64°18' E 009°36'115.3 150 / 231006.010.8 18.0 9.515.2
2017-Aug-17 20:54N 64°19' E 009°38'718.9
2017-Aug-17 20:30N 64°12' E 009°33'918.8
2017-Aug-17 20:00N 64°03' E 009°27'3410.9
2017-Aug-17 20:00N 64°06' E 009°30'1326.0 140 / 251006.210.8 19.010.715.2
2017-Aug-17 19:30N 63°54' E 009°21'918.7
2017-Aug-17 19:00N 63°45' E 009°15'3201.9
2017-Aug-17 19:00N 63°42' E 009°12'510.6 110 / 171006.510.8 19.010.715.2
2017-Aug-17 18:30N 63°38' E 009°18'611.0
2017-Aug-17 18:00N 63°37' E 009°31'173.6
2017-Aug-17 18:00N 63°36' E 009°30'816.0 100 / 41007.110.8 19.010.715.2
2017-Aug-17 17:30N 63°38' E 009°47'917.4
2017-Aug-17 17:01N 63°31' E 009°54'816.6
2017-Aug-17 16:30N 63°29' E 010°12'611.4
2017-Aug-17 16:00N 63°27' E 010°24'0 0.8
2017-Aug-17 15:30N 63°26' E 010°24'0 0.0
2017-Aug-17 15:00N 63°26' E 010°24'0 0.0
2017-Aug-17 14:30N 63°26' E 010°24'0 0.0
2017-Aug-17 14:00N 63°26' E 010°24'0 0.0
2017-Aug-17 13:30N 63°26' E 010°24'0 0.0
2017-Aug-17 12:59N 63°27' E 010°24'0 0.0
2017-Aug-17 12:29N 63°26' E 010°24'0 0.0
2017-Aug-17 11:59N 63°27' E 010°24'0 0.0
2017-Aug-17 11:29N 63°27' E 010°24'0 0.0
2017-Aug-17 10:58N 63°27' E 010°24'0 0.0
2017-Aug-17 10:28N 63°26' E 010°24'0 0.0
2017-Aug-17 09:58N 63°27' E 010°24'0 0.0
2017-Aug-17 09:28N 63°27' E 010°24'0 0.0
2017-Aug-17 08:58N 63°26' E 010°24'0 0.0
2017-Aug-17 08:28N 63°27' E 010°24'0 0.0
2017-Aug-17 08:00N 63°27' E 010°24'0 0.0
2017-Aug-17 07:30N 63°26' E 010°24'0 0.0
2017-Aug-17 07:00N 63°26' E 010°24'0 0.0
2017-Aug-17 06:30N 63°26' E 010°24'3 6.5
2017-Aug-17 06:00N 63°28' E 010°17'815.8
2017-Aug-17 05:30N 63°28' E 009°60'714.4
2017-Aug-17 05:00N 63°34' E 009°50'613.0
2017-Aug-17 04:30N 63°40' E 009°42'814.9
2017-Aug-17 04:00N 63°36' E 009°27'815.6
2017-Aug-17 03:30N 63°32' E 009°12'916.8
2017-Aug-17 03:00N 63°28' E 008°55'817.3
2017-Aug-17 02:30N 63°25' E 008°37'917.9
2017-Aug-17 02:00N 63°20' E 008°20'918.4
2017-Aug-17 01:30N 63°15' E 008°03'816.6
2017-Aug-17 01:00N 63°14' E 007°45'5 9.4
2017-Aug-17 00:30N 63°15' E 007°35'1019.0
2017-Aug-17 00:00N 63°14' E 007°14'1121.4
2017-Aug-16 23:30N 63°11' E 006°51'3820.9
2017-Aug-16 21:41N 62°51' E 005°41'421.0
2017-Aug-16 21:30N 62°47' E 005°39'1120.9
2017-Aug-16 21:00N 62°36' E 005°39'2168.1
2017-Aug-16 21:00N 62°36' E 005°36'1019.7 220 / 171013.410.8 12.510.615.5
2017-Aug-16 20:30N 62°29' E 005°50'816.0
2017-Aug-16 20:00N 62°24' E 006°04'918.7
2017-Aug-16 19:30N 62°24' E 006°24'1019.4
2017-Aug-16 19:00N 62°27' E 006°44'56132.2
2017-Aug-16 19:00N 62°24' E 006°36'918.6 290 / 21014.110.8 13.511.615.6
2017-Aug-16 18:30N 62°22' E 006°55'815.6
2017-Aug-16 18:00N 62°15' E 007°01'3641.5
2017-Aug-16 18:00N 62°12' E 007°00'6 2.7 150 / 151014.110.8 12.512.515.2
2017-Aug-16 15:49N 62°07' E 006°55'414.1
2017-Aug-16 15:30N 62°06' E 007°05'1 1.5
2017-Aug-16 15:00N 62°06' E 007°06'2 4.5
2017-Aug-16 14:30N 62°07' E 007°11'1 1.4
2017-Aug-16 13:59N 62°06' E 007°11'0 0.0
2017-Aug-16 13:29N 62°06' E 007°11'0 0.0
2017-Aug-16 12:58N 62°06' E 007°11'0 0.0
2017-Aug-16 12:28N 62°06' E 007°11'0 0.0
2017-Aug-16 11:58N 62°06' E 007°11'0 0.0
2017-Aug-16 11:28N 62°06' E 007°11'0 0.0
2017-Aug-16 10:58N 62°06' E 007°11'0 0.0
2017-Aug-16 10:30N 62°06' E 007°11'0 0.0
2017-Aug-16 10:00N 62°06' E 007°11'0 0.0
2017-Aug-16 09:29N 62°06' E 007°11'0 0.0
2017-Aug-16 08:59N 62°06' E 007°11'0 0.0
2017-Aug-16 08:29N 62°06' E 007°11'0 0.0
2017-Aug-16 07:59N 62°06' E 007°11'0 0.0
2017-Aug-16 07:30N 62°06' E 007°11'0 0.0
2017-Aug-16 07:00N 62°06' E 007°11'0 0.2
2017-Aug-16 06:30N 62°06' E 007°11'4 8.4
2017-Aug-16 05:59N 62°05' E 007°03'713.5
2017-Aug-16 05:29N 62°12' E 007°02'816.1
2017-Aug-16 05:00N 62°20' E 006°57'714.2
2017-Aug-16 04:30N 62°26' E 006°52'714.2
2017-Aug-16 04:00N 62°27' E 006°37'814.7
2017-Aug-16 03:30N 62°24' E 006°21'713.9
2017-Aug-16 03:00N 62°23' E 006°07'713.8
2017-Aug-16 02:29N 62°27' E 005°53'815.4
2017-Aug-16 02:00N 62°27' E 005°37'715.1
2017-Aug-16 01:30N 62°27' E 005°21'918.7
2017-Aug-16 01:00N 62°26' E 005°01'6517.6
2017-Aug-15 21:19N 61°24' E 004°19'618.7
2017-Aug-15 21:00N 61°19' E 004°22'2148.2
2017-Aug-15 21:00N 61°18' E 004°18'1019.9 220 / 171010.410.8 16.0 9.315.6
2017-Aug-15 20:30N 61°14' E 004°37'817.0
2017-Aug-15 20:00N 61°14' E 004°54'4332.6
2017-Aug-15 20:00N 61°12' E 004°48'816.3 230 / 71010.710.8 16.0 9.315.6
2017-Aug-15 19:30N 61°10' E 005°04'816.3
2017-Aug-15 19:00N 61°05' E 005°17'5429.0
2017-Aug-15 19:00N 61°00' E 005°12'1225.7 290 / 121010.710.8 16.0 9.315.6
2017-Aug-15 18:30N 61°06' E 005°35'1019.6
2017-Aug-15 18:00N 61°08' E 005°55'43706.5
2017-Aug-15 18:00N 61°06' E 005°48'1326.3 090 / 261010.1 5.4 16.0 9.315.6
2017-Aug-15 17:30N 61°07' E 006°15'917.4
2017-Aug-15 17:00N 61°07' E 006°33'612.1
2017-Aug-15 16:30N 61°10' E 006°43'916.9
2017-Aug-15 16:00N 61°06' E 006°58'917.4
2017-Aug-15 15:30N 60°58' E 007°06'510.7
2017-Aug-15 14:59N 60°53' E 007°08'1 1.7
2017-Aug-15 14:30N 60°52' E 007°07'0 0.0
2017-Aug-15 13:58N 60°52' E 007°07'0 0.0
2017-Aug-15 13:31N 60°52' E 007°07'0 0.0
2017-Aug-15 13:00N 60°52' E 007°07'0 0.0
2017-Aug-15 12:30N 60°52' E 007°07'0 0.0
2017-Aug-15 12:00N 60°52' E 007°07'0 0.0
2017-Aug-15 11:30N 60°52' E 007°07'0 0.0
2017-Aug-15 10:59N 60°52' E 007°07'0 0.0
2017-Aug-15 10:29N 60°52' E 007°07'0 0.0
2017-Aug-15 09:58N 60°52' E 007°07'0 0.0
2017-Aug-15 09:28N 60°52' E 007°07'0 0.0
2017-Aug-15 09:00N 60°52' E 007°07'0 0.0
2017-Aug-15 08:30N 60°52' E 007°07'0 0.0
2017-Aug-15 08:00N 60°52' E 007°07'0 0.0
2017-Aug-15 07:24N 60°52' E 007°07'0 0.0
2017-Aug-15 07:00N 60°52' E 007°07'0 0.0
2017-Aug-15 06:29N 60°52' E 007°07'0 0.0
2017-Aug-15 05:59N 60°52' E 007°07'0 0.0
2017-Aug-15 05:29N 60°52' E 007°07'0 0.0
2017-Aug-15 04:59N 60°52' E 007°07'0 0.0
2017-Aug-15 04:28N 60°52' E 007°07'0 0.8
2017-Aug-15 04:00N 60°52' E 007°08'4 7.4
2017-Aug-15 03:30N 60°56' E 007°10'611.3
2017-Aug-15 03:00N 61°00' E 007°03'714.1
2017-Aug-15 02:30N 61°06' E 006°56'713.7
2017-Aug-15 02:00N 61°10' E 006°44'510.6
2017-Aug-15 01:30N 61°08' E 006°34'816.3
2017-Aug-15 01:01N 61°07' E 006°18'1019.0
2017-Aug-15 00:30N 61°08' E 005°58'918.4
2017-Aug-15 00:00N 61°07' E 005°39'918.1
2017-Aug-14 23:29N 61°04' E 005°21'816.7
2017-Aug-14 23:01N 61°06' E 005°05'918.0
2017-Aug-14 22:30N 61°01' E 004°49'917.5
2017-Aug-14 22:00N 60°53' E 004°40'816.5
2017-Aug-14 21:30N 60°48' E 004°27'1020.6
2017-Aug-14 21:00N 60°38' E 004°26'2180.8
2017-Aug-14 21:00N 60°36' E 004°24'817.3 150 / 281018.010.8 15.5 9.816.5
2017-Aug-14 20:30N 60°28' E 004°25'1018.7
2017-Aug-14 20:00N 60°18' E 004°24'1818.2 160 / 251018.410.8 15.5 9.816.5
2017-Aug-14 19:00N 60°00' E 004°30'2323.2 150 / 241018.410.8 16.510.916.5
2017-Aug-14 18:01N 59°38' E 004°40'021.5
2017-Aug-14 18:00N 59°38' E 004°40'1020.7
2017-Aug-14 17:30N 59°28' E 004°49'918.6
2017-Aug-14 17:00N 59°20' E 004°56'917.1
2017-Aug-14 16:30N 59°12' E 005°03'816.6
2017-Aug-14 16:00N 59°07' E 005°15'917.2
2017-Aug-14 15:30N 59°06' E 005°32'816.2
2017-Aug-14 15:00N 58°59' E 005°42'1 2.2
2017-Aug-14 14:30N 58°58' E 005°44'0 0.0
2017-Aug-14 14:00N 58°58' E 005°44'0 0.0
2017-Aug-14 13:30N 58°58' E 005°44'0 0.0
2017-Aug-14 12:59N 58°58' E 005°44'0 0.0
2017-Aug-14 12:29N 58°58' E 005°44'0 0.0
2017-Aug-14 11:59N 58°58' E 005°44'0 0.0
2017-Aug-14 11:29N 58°58' E 005°44'0 0.0
2017-Aug-14 10:59N 58°58' E 005°44'0 0.0
2017-Aug-14 10:28N 58°58' E 005°44'0 0.0
2017-Aug-14 09:58N 58°58' E 005°44'0 0.0
2017-Aug-14 09:28N 58°58' E 005°44'0 0.0
2017-Aug-14 08:58N 58°58' E 005°44'0 0.0
2017-Aug-14 08:27N 58°58' E 005°44'0 0.0
2017-Aug-14 07:57N 58°58' E 005°44'0 0.0
2017-Aug-14 07:30N 58°58' E 005°44'0 0.0
2017-Aug-14 07:00N 58°58' E 005°44'0 0.0
2017-Aug-14 06:30N 58°58' E 005°44'0 0.4
2017-Aug-14 06:00N 58°59' E 005°43'1 2.4
2017-Aug-14 05:30N 58°60' E 005°42'511.0
2017-Aug-14 05:01N 59°03' E 005°34'612.6
2017-Aug-14 04:30N 58°57' E 005°33'714.2
2017-Aug-14 04:01N 58°50' E 005°29'713.4
2017-Aug-14 03:30N 58°45' E 005°20'714.4
2017-Aug-14 03:00N 58°40' E 005°10'713.9
2017-Aug-14 02:30N 58°33' E 005°07'1314.5
2017-Aug-14 01:38N 58°21' E 005°01'8217.7
2017-Aug-13 21:00N 57°00' E 004°36'   270 / 91020.910.8 14.0 8.016.0
Track history (hours):
 
Tides and Currents Weather Stations Pressure Air Temp Water Temp Dewpoint Dewpoint Depression Visibility Wind Speed Wind Dir Waves Ship Positions

Crown Princess

Last reported at 2017-Aug-23 13:27 UTC. Time now 2017-Aug-23 13:36 UTC.
Position N 62°28' E 006°09'.

Type: Ship. MMSI: 310500000.

Date/timePositionNaut miles runAvg speedWind from/ knotsBaromVisibWave heightAir tempDewpointWater temp
2017-Aug-23 13:27N 62°28' E 006°09'0 0.0
2017-Aug-23 12:51N 62°28' E 006°09'0 0.0
2017-Aug-23 12:15N 62°28' E 006°09'0 0.0
2017-Aug-23 11:57N 62°28' E 006°09'0 0.0
2017-Aug-23 11:27N 62°28' E 006°09'0 0.0
2017-Aug-23 10:56N 62°28' E 006°09'0 0.0
2017-Aug-23 10:26N 62°28' E 006°09'0 0.0
2017-Aug-23 09:59N 62°28' E 006°09'0 0.0
2017-Aug-23 09:23N 62°28' E 006°09'0 0.0
2017-Aug-23 08:58N 62°28' E 006°09'0 0.0
2017-Aug-23 08:28N 62°28' E 006°09'0 0.0
2017-Aug-23 07:55N 62°28' E 006°09'0 0.0
2017-Aug-23 07:25N 62°28' E 006°09'0 0.0
2017-Aug-23 06:55N 62°28' E 006°09'0 0.0
2017-Aug-23 06:30N 62°28' E 006°09'0 0.0
2017-Aug-23 05:48N 62°28' E 006°09'0 0.2
2017-Aug-23 05:30N 62°28' E 006°10'1 1.4
2017-Aug-23 05:00N 62°28' E 006°10'611.6
2017-Aug-23 04:31N 62°27' E 005°58'511.0
2017-Aug-23 04:01N 62°29' E 005°47'612.5
2017-Aug-23 03:31N 62°34' E 005°39'712.7
2017-Aug-23 03:00N 62°41' E 005°41'612.8
2017-Aug-23 02:30N 62°46' E 005°48'612.6
2017-Aug-23 02:00N 62°51' E 005°56'612.3
2017-Aug-23 01:30N 62°56' E 006°03'3 5.4
2017-Aug-23 01:00N 62°54' E 006°00'25311.5 070 / 131019.510.8 13.0 4.216.0
2017-Aug-22 03:03N 66°29' E 011°12'111.1
2017-Aug-22 02:57N 66°30' E 011°14'511.0
2017-Aug-22 02:28N 66°34' E 011°21'511.0
2017-Aug-22 02:01N 66°39' E 011°27'611.0
2017-Aug-22 01:30N 66°44' E 011°34'4710.5
2017-Aug-21 21:00N 67°24' E 012°36'510.3
2017-Aug-21 20:29N 67°29' E 012°44'510.0
2017-Aug-21 20:00N 67°33' E 012°50'510.5
2017-Aug-21 19:30N 67°37' E 012°58'511.2
2017-Aug-21 19:01N 67°42' E 013°05'510.6
2017-Aug-21 18:30N 67°47' E 013°13'511.0
2017-Aug-21 18:00N 67°51' E 013°21'611.2
2017-Aug-21 17:30N 67°56' E 013°28'510.9
2017-Aug-21 17:00N 68°01' E 013°34'510.0
2017-Aug-21 16:29N 68°06' E 013°36'1 1.8
2017-Aug-21 15:59N 68°07' E 013°36'0 0.0
2017-Aug-21 15:29N 68°07' E 013°36'0 0.0
2017-Aug-21 14:59N 68°07' E 013°36'0 0.0
2017-Aug-21 14:29N 68°07' E 013°36'0 0.0
2017-Aug-21 13:59N 68°07' E 013°36'0 0.1
2017-Aug-21 13:28N 68°07' E 013°36'0 0.0
2017-Aug-21 12:55N 68°07' E 013°36'0 0.1
2017-Aug-21 12:28N 68°07' E 013°36'0 0.0
2017-Aug-21 11:58N 68°07' E 013°36'0 0.0
2017-Aug-21 11:30N 68°07' E 013°36'0 0.0
2017-Aug-21 11:00N 68°07' E 013°36'0 0.0
2017-Aug-21 10:30N 68°07' E 013°36'0 0.0
2017-Aug-21 09:57N 68°07' E 013°36'0 0.0
2017-Aug-21 09:30N 68°07' E 013°36'0 0.0
2017-Aug-21 08:53N 68°07' E 013°36'0 0.0
2017-Aug-21 08:29N 68°07' E 013°36'0 0.0
2017-Aug-21 07:59N 68°07' E 013°36'0 0.1
2017-Aug-21 07:29N 68°07' E 013°36'0 0.0
2017-Aug-21 06:58N 68°07' E 013°36'0 0.0
2017-Aug-21 06:28N 68°07' E 013°36'0 0.5
2017-Aug-21 06:00N 68°07' E 013°36'510.2
2017-Aug-21 05:30N 68°02' E 013°34'714.0
2017-Aug-21 05:00N 67°56' E 013°21'917.7
2017-Aug-21 04:30N 67°50' E 013°05'917.4
2017-Aug-21 04:00N 67°49' E 012°42'815.8
2017-Aug-21 03:30N 67°57' E 012°35'917.9
2017-Aug-21 03:00N 68°05' E 012°43'918.8
2017-Aug-21 02:30N 68°14' E 012°54'1019.3
2017-Aug-21 02:00N 68°22' E 013°06'1019.5
2017-Aug-21 01:30N 68°31' E 013°18'1019.6
2017-Aug-21 01:00N 68°39' E 013°30'1019.6
2017-Aug-21 00:30N 68°48' E 013°43'1019.4
2017-Aug-21 00:00N 68°56' E 013°59'1019.4
2017-Aug-20 23:30N 69°04' E 014°16'919.1
2017-Aug-20 23:00N 69°10' E 014°36'1019.6
2017-Aug-20 22:30N 69°15' E 015°00'1019.4
2017-Aug-20 22:00N 69°19' E 015°25'1019.5
2017-Aug-20 21:30N 69°24' E 015°49'1019.7
2017-Aug-20 21:00N 69°28' E 016°14'4345.3
2017-Aug-20 21:00N 69°24' E 016°12'1326.2 360 / 401006.010.8 9.5 8.511.0
2017-Aug-20 20:30N 69°33' E 016°39'1019.6
2017-Aug-20 20:00N 69°37' E 017°03'1019.2
2017-Aug-20 19:30N 69°41' E 017°28'1019.3
2017-Aug-20 19:00N 69°45' E 017°55'714.5
2017-Aug-20 18:30N 69°47' E 018°15'816.3
2017-Aug-20 18:00N 69°49' E 018°37'611.1
2017-Aug-20 17:30N 69°55' E 018°40'815.5
2017-Aug-20 17:00N 69°50' E 018°58'612.4
2017-Aug-20 16:30N 69°44' E 019°03'4 7.2
2017-Aug-20 16:00N 69°41' E 018°60'0 0.0
2017-Aug-20 15:30N 69°41' E 018°60'0 0.0
2017-Aug-20 15:00N 69°41' E 018°60'0 0.0
2017-Aug-20 14:30N 69°41' E 018°60'0 0.0
2017-Aug-20 14:00N 69°41' E 018°60'0 0.0
2017-Aug-20 13:29N 69°41' E 018°60'0 0.0
2017-Aug-20 12:59N 69°41' E 018°60'0 0.0
2017-Aug-20 12:26N 69°41' E 018°60'0 0.0
2017-Aug-20 11:59N 69°41' E 018°60'0 0.0
2017-Aug-20 11:29N 69°41' E 018°60'0 0.0
2017-Aug-20 10:58N 69°41' E 018°60'0 0.0
2017-Aug-20 10:28N 69°41' E 018°60'0 0.0
2017-Aug-20 09:58N 69°41' E 018°60'0 0.0
2017-Aug-20 09:28N 69°41' E 018°60'0 0.0
2017-Aug-20 09:00N 69°41' E 018°60'0 0.0
2017-Aug-20 08:30N 69°41' E 018°60'0 0.0
2017-Aug-20 08:00N 69°41' E 018°60'5609.0
2017-Aug-20 08:00N 69°36' E 019°00'5 9.6 360 / 13997.810.8 10.5 8.5 9.6
2017-Aug-20 07:30N 69°41' E 018°60'0 0.0
2017-Aug-20 07:00N 69°41' E 018°60'0 0.6
2017-Aug-20 06:30N 69°40' E 018°59'3 6.7
2017-Aug-20 06:00N 69°44' E 019°03'713.6
2017-Aug-20 05:30N 69°48' E 019°19'815.2
2017-Aug-20 05:00N 69°50' E 019°40'815.4
2017-Aug-20 04:30N 69°55' E 019°55'1019.8
2017-Aug-20 04:00N 70°04' E 020°10'1019.9
2017-Aug-20 03:30N 70°13' E 020°21'1019.8
2017-Aug-20 03:00N 70°22' E 020°32'1019.9
2017-Aug-20 02:30N 70°32' E 020°42'2918.8
2017-Aug-20 00:58N 70°54' E 021°38'919.2
2017-Aug-20 00:30N 70°58' E 022°02'917.5
2017-Aug-20 00:00N 71°02' E 022°26'918.6
2017-Aug-19 23:30N 71°06' E 022°53'918.8
2017-Aug-19 23:00N 71°08' E 023°21'4299.2
2017-Aug-19 23:00N 71°06' E 023°12'1326.4 050 / 231006.910.8 9.0 6.911.9
2017-Aug-19 22:30N 71°11' E 023°49'918.6
2017-Aug-19 22:00N 71°12' E 024°17'918.5
2017-Aug-19 21:31N 71°12' E 024°46'918.4
2017-Aug-19 21:00N 71°13' E 025°15'1537.5
2017-Aug-19 21:00N 71°12' E 025°12'1020.1 050 / 231006.8 0.0 12.0 7.9 9.9
2017-Aug-19 20:30N 71°13' E 025°43'917.1
2017-Aug-19 20:00N 71°08' E 026°06'35785.3
2017-Aug-19 20:00N 71°06' E 026°00'714.2 010 / 51006.8 0.0 12.0 7.9 9.9
2017-Aug-19 19:30N 71°02' E 026°18'714.5
2017-Aug-19 19:00N 70°57' E 026°01'2 3.7
2017-Aug-19 18:30N 70°58' E 025°56'0 0.1
2017-Aug-19 17:59N 70°58' E 025°56'0 0.1
2017-Aug-19 17:29N 70°58' E 025°56'0 0.0
2017-Aug-19 16:59N 70°58' E 025°56'0 0.0
2017-Aug-19 16:29N 70°58' E 025°56'0 0.0
2017-Aug-19 15:59N 70°58' E 025°56'0 0.0
2017-Aug-19 15:28N 70°58' E 025°56'0 0.0
2017-Aug-19 14:59N 70°58' E 025°56'0 0.0
2017-Aug-19 13:58N 70°58' E 025°56'0 0.0
2017-Aug-19 13:30N 70°58' E 025°56'0 0.1
2017-Aug-19 13:00N 70°58' E 025°56'0 0.0
2017-Aug-19 12:30N 70°58' E 025°56'0 0.0
2017-Aug-19 12:00N 70°58' E 025°56'0 0.0
2017-Aug-19 11:30N 70°58' E 025°56'0 0.0
2017-Aug-19 10:59N 70°58' E 025°56'0 0.0
2017-Aug-19 10:29N 70°58' E 025°56'0 0.0
2017-Aug-19 09:59N 70°58' E 025°56'0 0.0
2017-Aug-19 09:29N 70°58' E 025°56'0 0.0
2017-Aug-19 08:58N 70°58' E 025°56'0 0.0
2017-Aug-19 08:28N 70°58' E 025°56'5 9.4
2017-Aug-19 08:00N 70°54' E 025°54'5184.3 210 / 51007.810.8 10.0 7.9 9.2
2017-Aug-19 07:58N 70°58' E 025°56'0 0.0
2017-Aug-19 07:28N 70°58' E 025°56'0 0.0
2017-Aug-19 06:58N 70°58' E 025°56'0 0.0
2017-Aug-19 06:30N 70°58' E 025°56'0 0.0
2017-Aug-19 06:00N 70°58' E 025°56'0 0.0
2017-Aug-19 05:30N 70°58' E 025°56'0 0.1
2017-Aug-19 05:00N 70°58' E 025°56'4 7.7
2017-Aug-19 04:29N 70°57' E 026°08'714.3
2017-Aug-19 04:00N 71°03' E 026°19'814.7
2017-Aug-19 03:30N 71°09' E 026°05'715.3
2017-Aug-19 03:00N 71°12' E 025°44'815.9
2017-Aug-19 02:30N 71°13' E 025°20'816.6
2017-Aug-19 02:00N 71°12' E 024°54'1121.0
2017-Aug-19 01:30N 71°12' E 024°21'1121.4
2017-Aug-19 01:00N 71°11' E 023°48'1121.4
2017-Aug-19 00:30N 71°08' E 023°16'1121.6
2017-Aug-19 00:00N 71°05' E 022°44'1121.7
2017-Aug-18 23:30N 71°01' E 022°13'4819.6
2017-Aug-18 21:02N 70°41' E 019°58'118.2
2017-Aug-18 21:00N 70°41' E 019°56'918.1
2017-Aug-18 20:30N 70°37' E 019°31'1020.4
2017-Aug-18 20:00N 70°33' E 019°03'7219.0
2017-Aug-18 16:12N 69°49' E 016°15'419.4
2017-Aug-18 16:00N 69°46' E 016°07'1019.3
2017-Aug-18 15:31N 69°40' E 015°47'1019.5
2017-Aug-18 15:00N 69°33' E 015°27'1019.5
2017-Aug-18 14:31N 69°26' E 015°07'1919.2
2017-Aug-18 13:30N 69°12' E 014°29'1019.8
2017-Aug-18 13:00N 69°04' E 014°12'1019.3
2017-Aug-18 12:30N 68°57' E 013°56'1019.1
2017-Aug-18 11:59N 68°49' E 013°39'919.3
2017-Aug-18 11:30N 68°42' E 013°24'1019.1
2017-Aug-18 11:00N 68°34' E 013°07'1019.4
2017-Aug-18 10:30N 68°26' E 012°52'1019.3
2017-Aug-18 10:00N 68°19' E 012°36'919.1
2017-Aug-18 09:30N 68°11' E 012°20'24219.4
2017-Aug-17 21:00N 64°18' E 009°36'115.3 150 / 231006.010.8 18.0 9.515.2
2017-Aug-17 20:54N 64°19' E 009°38'718.9
2017-Aug-17 20:30N 64°12' E 009°33'918.8
2017-Aug-17 20:00N 64°03' E 009°27'3410.9
2017-Aug-17 20:00N 64°06' E 009°30'1326.0 140 / 251006.210.8 19.010.715.2
2017-Aug-17 19:30N 63°54' E 009°21'918.7
2017-Aug-17 19:00N 63°45' E 009°15'3201.9
2017-Aug-17 19:00N 63°42' E 009°12'510.6 110 / 171006.510.8 19.010.715.2
2017-Aug-17 18:30N 63°38' E 009°18'611.0
2017-Aug-17 18:00N 63°37' E 009°31'173.6
2017-Aug-17 18:00N 63°36' E 009°30'816.0 100 / 41007.110.8 19.010.715.2
2017-Aug-17 17:30N 63°38' E 009°47'917.4
2017-Aug-17 17:01N 63°31' E 009°54'816.6
2017-Aug-17 16:30N 63°29' E 010°12'611.4
2017-Aug-17 16:00N 63°27' E 010°24'0 0.8
2017-Aug-17 15:30N 63°26' E 010°24'0 0.0
2017-Aug-17 15:00N 63°26' E 010°24'0 0.0
2017-Aug-17 14:30N 63°26' E 010°24'0 0.0
2017-Aug-17 14:00N 63°26' E 010°24'0 0.0
2017-Aug-17 13:30N 63°26' E 010°24'0 0.0
2017-Aug-17 12:59N 63°27' E 010°24'0 0.0
2017-Aug-17 12:29N 63°26' E 010°24'0 0.0
2017-Aug-17 11:59N 63°27' E 010°24'0 0.0
2017-Aug-17 11:29N 63°27' E 010°24'0 0.0
2017-Aug-17 10:58N 63°27' E 010°24'0 0.0
2017-Aug-17 10:28N 63°26' E 010°24'0 0.0
2017-Aug-17 09:58N 63°27' E 010°24'0 0.0
2017-Aug-17 09:28N 63°27' E 010°24'0 0.0
2017-Aug-17 08:58N 63°26' E 010°24'0 0.0
2017-Aug-17 08:28N 63°27' E 010°24'0 0.0
2017-Aug-17 08:00N 63°27' E 010°24'0 0.0
2017-Aug-17 07:30N 63°26' E 010°24'0 0.0
2017-Aug-17 07:00N 63°26' E 010°24'0 0.0
2017-Aug-17 06:30N 63°26' E 010°24'3 6.5
2017-Aug-17 06:00N 63°28' E 010°17'815.8
2017-Aug-17 05:30N 63°28' E 009°60'714.4
2017-Aug-17 05:00N 63°34' E 009°50'613.0
2017-Aug-17 04:30N 63°40' E 009°42'814.9
2017-Aug-17 04:00N 63°36' E 009°27'815.6
2017-Aug-17 03:30N 63°32' E 009°12'916.8
2017-Aug-17 03:00N 63°28' E 008°55'817.3
2017-Aug-17 02:30N 63°25' E 008°37'917.9
2017-Aug-17 02:00N 63°20' E 008°20'918.4
2017-Aug-17 01:30N 63°15' E 008°03'816.6
2017-Aug-17 01:00N 63°14' E 007°45'5 9.4
2017-Aug-17 00:30N 63°15' E 007°35'1019.0
2017-Aug-17 00:00N 63°14' E 007°14'1121.4
2017-Aug-16 23:30N 63°11' E 006°51'3820.9
2017-Aug-16 21:41N 62°51' E 005°41'421.0
2017-Aug-16 21:30N 62°47' E 005°39'1120.9
2017-Aug-16 21:00N 62°36' E 005°39'2168.1
2017-Aug-16 21:00N 62°36' E 005°36'1019.7 220 / 171013.410.8 12.510.615.5
2017-Aug-16 20:30N 62°29' E 005°50'816.0
2017-Aug-16 20:00N 62°24' E 006°04'918.7
2017-Aug-16 19:30N 62°24' E 006°24'1019.4
2017-Aug-16 19:00N 62°27' E 006°44'56132.2
2017-Aug-16 19:00N 62°24' E 006°36'918.6 290 / 21014.110.8 13.511.615.6
2017-Aug-16 18:30N 62°22' E 006°55'815.6
2017-Aug-16 18:00N 62°15' E 007°01'3641.5
2017-Aug-16 18:00N 62°12' E 007°00'6 2.7 150 / 151014.110.8 12.512.515.2
2017-Aug-16 15:49N 62°07' E 006°55'414.1
2017-Aug-16 15:30N 62°06' E 007°05'1 1.5
2017-Aug-16 15:00N 62°06' E 007°06'2 4.5
2017-Aug-16 14:30N 62°07' E 007°11'1 1.4
2017-Aug-16 13:59N 62°06' E 007°11'0 0.0
2017-Aug-16 13:29N 62°06' E 007°11'0 0.0
2017-Aug-16 12:58N 62°06' E 007°11'0 0.0
2017-Aug-16 12:28N 62°06' E 007°11'0 0.0
2017-Aug-16 11:58N 62°06' E 007°11'0 0.0
2017-Aug-16 11:28N 62°06' E 007°11'0 0.0
2017-Aug-16 10:58N 62°06' E 007°11'0 0.0
2017-Aug-16 10:30N 62°06' E 007°11'0 0.0
2017-Aug-16 10:00N 62°06' E 007°11'0 0.0
2017-Aug-16 09:29N 62°06' E 007°11'0 0.0
2017-Aug-16 08:59N 62°06' E 007°11'0 0.0
2017-Aug-16 08:29N 62°06' E 007°11'0 0.0
2017-Aug-16 07:59N 62°06' E 007°11'0 0.0
2017-Aug-16 07:30N 62°06' E 007°11'0 0.0
2017-Aug-16 07:00N 62°06' E 007°11'0 0.2
2017-Aug-16 06:30N 62°06' E 007°11'4 8.4
2017-Aug-16 05:59N 62°05' E 007°03'713.5
2017-Aug-16 05:29N 62°12' E 007°02'816.1
2017-Aug-16 05:00N 62°20' E 006°57'714.2
2017-Aug-16 04:30N 62°26' E 006°52'714.2
2017-Aug-16 04:00N 62°27' E 006°37'814.7
2017-Aug-16 03:30N 62°24' E 006°21'713.9
2017-Aug-16 03:00N 62°23' E 006°07'713.8
2017-Aug-16 02:29N 62°27' E 005°53'815.4
2017-Aug-16 02:00N 62°27' E 005°37'715.1
2017-Aug-16 01:30N 62°27' E 005°21'918.7
2017-Aug-16 01:00N 62°26' E 005°01'6517.6
2017-Aug-15 21:19N 61°24' E 004°19'618.7
2017-Aug-15 21:00N 61°19' E 004°22'2148.2
2017-Aug-15 21:00N 61°18' E 004°18'1019.9 220 / 171010.410.8 16.0 9.315.6
2017-Aug-15 20:30N 61°14' E 004°37'817.0
2017-Aug-15 20:00N 61°14' E 004°54'4332.6
2017-Aug-15 20:00N 61°12' E 004°48'816.3 230 / 71010.710.8 16.0 9.315.6
2017-Aug-15 19:30N 61°10' E 005°04'816.3
2017-Aug-15 19:00N 61°05' E 005°17'5429.0
2017-Aug-15 19:00N 61°00' E 005°12'1225.7 290 / 121010.710.8 16.0 9.315.6
2017-Aug-15 18:30N 61°06' E 005°35'1019.6
2017-Aug-15 18:00N 61°08' E 005°55'43706.5
2017-Aug-15 18:00N 61°06' E 005°48'1326.3 090 / 261010.1 5.4 16.0 9.315.6
2017-Aug-15 17:30N 61°07' E 006°15'917.4
2017-Aug-15 17:00N 61°07' E 006°33'612.1
2017-Aug-15 16:30N 61°10' E 006°43'916.9
2017-Aug-15 16:00N 61°06' E 006°58'917.4
2017-Aug-15 15:30N 60°58' E 007°06'510.7
2017-Aug-15 14:59N 60°53' E 007°08'1 1.7
2017-Aug-15 14:30N 60°52' E 007°07'0 0.0
2017-Aug-15 13:58N 60°52' E 007°07'0 0.0
2017-Aug-15 13:31N 60°52' E 007°07'0 0.0
2017-Aug-15 13:00N 60°52' E 007°07'0 0.0
2017-Aug-15 12:30N 60°52' E 007°07'0 0.0
2017-Aug-15 12:00N 60°52' E 007°07'0 0.0
2017-Aug-15 11:30N 60°52' E 007°07'0 0.0
2017-Aug-15 10:59N 60°52' E 007°07'0 0.0
2017-Aug-15 10:29N 60°52' E 007°07'0 0.0
2017-Aug-15 09:58N 60°52' E 007°07'0 0.0
2017-Aug-15 09:28N 60°52' E 007°07'0 0.0
2017-Aug-15 09:00N 60°52' E 007°07'0 0.0
2017-Aug-15 08:30N 60°52' E 007°07'0 0.0
2017-Aug-15 08:00N 60°52' E 007°07'0 0.0
2017-Aug-15 07:24N 60°52' E 007°07'0 0.0
2017-Aug-15 07:00N 60°52' E 007°07'0 0.0
2017-Aug-15 06:29N 60°52' E 007°07'0 0.0
2017-Aug-15 05:59N 60°52' E 007°07'0 0.0
2017-Aug-15 05:29N 60°52' E 007°07'0 0.0
2017-Aug-15 04:59N 60°52' E 007°07'0 0.0
2017-Aug-15 04:28N 60°52' E 007°07'0 0.8
2017-Aug-15 04:00N 60°52' E 007°08'4 7.4
2017-Aug-15 03:30N 60°56' E 007°10'611.3
2017-Aug-15 03:00N 61°00' E 007°03'714.1
2017-Aug-15 02:30N 61°06' E 006°56'713.7
2017-Aug-15 02:00N 61°10' E 006°44'510.6
2017-Aug-15 01:30N 61°08' E 006°34'816.3
2017-Aug-15 01:01N 61°07' E 006°18'1019.0
2017-Aug-15 00:30N 61°08' E 005°58'918.4
2017-Aug-15 00:00N 61°07' E 005°39'918.1
2017-Aug-14 23:29N 61°04' E 005°21'816.7
2017-Aug-14 23:01N 61°06' E 005°05'918.0
2017-Aug-14 22:30N 61°01' E 004°49'917.5
2017-Aug-14 22:00N 60°53' E 004°40'816.5
2017-Aug-14 21:30N 60°48' E 004°27'1020.6
2017-Aug-14 21:00N 60°38' E 004°26'2180.8
2017-Aug-14 21:00N 60°36' E 004°24'817.3 150 / 281018.010.8 15.5 9.816.5
2017-Aug-14 20:30N 60°28' E 004°25'1018.7
2017-Aug-14 20:00N 60°18' E 004°24'1818.2 160 / 251018.410.8 15.5 9.816.5
2017-Aug-14 19:00N 60°00' E 004°30'2323.2 150 / 241018.410.8 16.510.916.5
2017-Aug-14 18:01N 59°38' E 004°40'021.5
2017-Aug-14 18:00N 59°38' E 004°40'1020.7
2017-Aug-14 17:30N 59°28' E 004°49'918.6
2017-Aug-14 17:00N 59°20' E 004°56'917.1
2017-Aug-14 16:30N 59°12' E 005°03'816.6
2017-Aug-14 16:00N 59°07' E 005°15'917.2
2017-Aug-14 15:30N 59°06' E 005°32'816.2
2017-Aug-14 15:00N 58°59' E 005°42'1 2.2
2017-Aug-14 14:30N 58°58' E 005°44'0 0.0
2017-Aug-14 14:00N 58°58' E 005°44'0 0.0
2017-Aug-14 13:30N 58°58' E 005°44'0 0.0
2017-Aug-14 12:59N 58°58' E 005°44'0 0.0
2017-Aug-14 12:29N 58°58' E 005°44'0 0.0
2017-Aug-14 11:59N 58°58' E 005°44'0 0.0
2017-Aug-14 11:29N 58°58' E 005°44'0 0.0
2017-Aug-14 10:59N 58°58' E 005°44'0 0.0
2017-Aug-14 10:28N 58°58' E 005°44'0 0.0
2017-Aug-14 09:58N 58°58' E 005°44'0 0.0
2017-Aug-14 09:28N 58°58' E 005°44'0 0.0
2017-Aug-14 08:58N 58°58' E 005°44'0 0.0
2017-Aug-14 08:27N 58°58' E 005°44'0 0.0
2017-Aug-14 07:57N 58°58' E 005°44'0 0.0
2017-Aug-14 07:30N 58°58' E 005°44'0 0.0
2017-Aug-14 07:00N 58°58' E 005°44'0 0.0
2017-Aug-14 06:30N 58°58' E 005°44'0 0.4
2017-Aug-14 06:00N 58°59' E 005°43'1 2.4
2017-Aug-14 05:30N 58°60' E 005°42'511.0
2017-Aug-14 05:01N 59°03' E 005°34'612.6
2017-Aug-14 04:30N 58°57' E 005°33'714.2
2017-Aug-14 04:01N 58°50' E 005°29'713.4
2017-Aug-14 03:30N 58°45' E 005°20'714.4
2017-Aug-14 03:00N 58°40' E 005°10'713.9
2017-Aug-14 02:30N 58°33' E 005°07'1314.5
2017-Aug-14 01:38N 58°21' E 005°01'8217.7
2017-Aug-13 21:00N 57°00' E 004°36'   270 / 91020.910.8 14.0 8.016.0

Dump ship's entire track history